sensor_id;sensor_type;location;lat;lon;timestamp;pressure;altitude;pressure_sealevel;temperature;humidity
13027;BME280;6580;42.680;23.324;2023-02-11T00:01:35;96989.84;;;-0.78;66.23
13027;BME280;6580;42.680;23.324;2023-02-11T00:04:03;96989.06;;;-0.81;65.18
13027;BME280;6580;42.680;23.324;2023-02-11T00:06:31;96996.16;;;-0.57;64.70
13027;BME280;6580;42.680;23.324;2023-02-11T00:09:03;96988.66;;;-0.68;65.11
13027;BME280;6580;42.680;23.324;2023-02-11T00:11:36;96988.72;;;-0.69;64.42
13027;BME280;6580;42.680;23.324;2023-02-11T00:14:09;96986.44;;;-0.80;65.19
13027;BME280;6580;42.680;23.324;2023-02-11T00:16:38;96987.34;;;-0.81;64.71
13027;BME280;6580;42.680;23.324;2023-02-11T00:19:05;96997.28;;;-0.92;66.18
13027;BME280;6580;42.680;23.324;2023-02-11T00:21:33;96983.56;;;-1.00;65.33
13027;BME280;6580;42.680;23.324;2023-02-11T00:24:05;96991.31;;;-0.97;65.22
13027;BME280;6580;42.680;23.324;2023-02-11T00:26:34;96982.50;;;-1.21;65.89
13027;BME280;6580;42.680;23.324;2023-02-11T00:29:02;96976.13;;;-1.11;64.53
13027;BME280;6580;42.680;23.324;2023-02-11T00:31:31;96993.44;;;-1.09;65.72
13027;BME280;6580;42.680;23.324;2023-02-11T00:33:59;96989.06;;;-1.08;65.44
13027;BME280;6580;42.680;23.324;2023-02-11T00:36:28;96986.00;;;-0.94;64.56
13027;BME280;6580;42.680;23.324;2023-02-11T00:38:58;96985.47;;;-0.77;63.40
13027;BME280;6580;42.680;23.324;2023-02-11T00:41:27;96973.06;;;-0.98;63.68
13027;BME280;6580;42.680;23.324;2023-02-11T00:43:57;96982.25;;;-0.85;63.40
13027;BME280;6580;42.680;23.324;2023-02-11T00:46:24;96982.69;;;-1.00;64.09
13027;BME280;6580;42.680;23.324;2023-02-11T00:49:10;96984.81;;;-0.84;63.18
13027;BME280;6580;42.680;23.324;2023-02-11T00:51:38;96979.97;;;-0.96;63.36
13027;BME280;6580;42.680;23.324;2023-02-11T00:54:12;96984.72;;;-1.08;63.76
13027;BME280;6580;42.680;23.324;2023-02-11T00:56:40;96981.44;;;-1.16;63.83
13027;BME280;6580;42.680;23.324;2023-02-11T00:59:08;96980.47;;;-1.12;64.97
13027;BME280;6580;42.680;23.324;2023-02-11T01:01:44;96971.88;;;-1.15;63.88
13027;BME280;6580;42.680;23.324;2023-02-11T01:04:13;96969.41;;;-1.20;63.84
13027;BME280;6580;42.680;23.324;2023-02-11T01:06:42;96978.91;;;-1.17;63.74
13027;BME280;6580;42.680;23.324;2023-02-11T01:09:08;96954.16;;;-1.35;63.87
13027;BME280;6580;42.680;23.324;2023-02-11T01:11:41;96974.66;;;-1.21;64.21
13027;BME280;6580;42.680;23.324;2023-02-11T01:14:09;96970.25;;;-1.19;64.02
13027;BME280;6580;42.680;23.324;2023-02-11T01:16:41;96958.38;;;-1.29;64.47
13027;BME280;6580;42.680;23.324;2023-02-11T01:19:16;96968.53;;;-1.20;64.32
13027;BME280;6580;42.680;23.324;2023-02-11T01:21:43;96964.53;;;-1.32;64.06
13027;BME280;6580;42.680;23.324;2023-02-11T01:24:13;96944.09;;;-1.47;64.40
13027;BME280;6580;42.680;23.324;2023-02-11T01:26:40;96964.59;;;-1.35;64.82
13027;BME280;6580;42.680;23.324;2023-02-11T01:29:10;96962.97;;;-1.37;65.43
13027;BME280;6580;42.680;23.324;2023-02-11T01:31:38;96973.41;;;-1.37;64.52
13027;BME280;6580;42.680;23.324;2023-02-11T01:34:05;96969.09;;;-1.38;64.53
13027;BME280;6580;42.680;23.324;2023-02-11T01:36:37;96959.28;;;-1.30;64.76
13027;BME280;6580;42.680;23.324;2023-02-11T01:39:08;96964.38;;;-1.56;64.76
13027;BME280;6580;42.680;23.324;2023-02-11T01:41:41;96961.84;;;-1.59;65.23
13027;BME280;6580;42.680;23.324;2023-02-11T01:44:23;96962.00;;;-1.64;66.37
13027;BME280;6580;42.680;23.324;2023-02-11T01:46:50;96963.78;;;-1.64;66.16
13027;BME280;6580;42.680;23.324;2023-02-11T01:49:19;96962.94;;;-1.66;66.07
13027;BME280;6580;42.680;23.324;2023-02-11T01:51:52;96960.28;;;-1.65;66.00
13027;BME280;6580;42.680;23.324;2023-02-11T01:54:23;96967.59;;;-1.76;66.53
13027;BME280;6580;42.680;23.324;2023-02-11T01:57:10;96952.59;;;-1.69;66.47
13027;BME280;6580;42.680;23.324;2023-02-11T02:00:00;96959.69;;;-1.74;66.98
13027;BME280;6580;42.680;23.324;2023-02-11T02:02:33;96963.19;;;-1.75;66.73
13027;BME280;6580;42.680;23.324;2023-02-11T02:05:07;96957.03;;;-1.73;66.37
13027;BME280;6580;42.680;23.324;2023-02-11T02:07:42;96959.16;;;-1.85;66.39
13027;BME280;6580;42.680;23.324;2023-02-11T02:10:14;96960.03;;;-1.86;66.74
13027;BME280;6580;42.680;23.324;2023-02-11T02:12:43;96949.91;;;-1.98;67.39
13027;BME280;6580;42.680;23.324;2023-02-11T02:15:24;96964.53;;;-1.91;67.80
13027;BME280;6580;42.680;23.324;2023-02-11T02:18:12;96960.28;;;-1.95;67.96
13027;BME280;6580;42.680;23.324;2023-02-11T02:24:01;96951.00;;;-1.75;66.71
13027;BME280;6580;42.680;23.324;2023-02-11T02:26:53;96957.34;;;-1.83;66.14
13027;BME280;6580;42.680;23.324;2023-02-11T02:32:37;96960.94;;;-1.87;65.87
13027;BME280;6580;42.680;23.324;2023-02-11T02:35:15;96962.25;;;-2.03;67.33
13027;BME280;6580;42.680;23.324;2023-02-11T02:37:50;96961.75;;;-1.85;66.83
13027;BME280;6580;42.680;23.324;2023-02-11T02:40:24;96957.38;;;-1.85;66.48
13027;BME280;6580;42.680;23.324;2023-02-11T02:42:56;96950.31;;;-1.81;65.90
13027;BME280;6580;42.680;23.324;2023-02-11T02:45:24;96946.25;;;-1.91;65.39
13027;BME280;6580;42.680;23.324;2023-02-11T02:47:55;96937.94;;;-2.05;66.52
13027;BME280;6580;42.680;23.324;2023-02-11T02:50:27;96947.28;;;-1.97;66.16
13027;BME280;6580;42.680;23.324;2023-02-11T02:53:11;96956.03;;;-1.99;66.73
13027;BME280;6580;42.680;23.324;2023-02-11T02:55:52;96953.41;;;-1.99;66.89
13027;BME280;6580;42.680;23.324;2023-02-11T02:58:48;96955.78;;;-1.90;65.25
13027;BME280;6580;42.680;23.324;2023-02-11T03:01:27;96955.41;;;-2.07;65.74
13027;BME280;6580;42.680;23.324;2023-02-11T03:04:05;96962.66;;;-2.18;66.03
13027;BME280;6580;42.680;23.324;2023-02-11T03:06:45;96965.97;;;-2.11;66.11
13027;BME280;6580;42.680;23.324;2023-02-11T03:09:17;96965.00;;;-2.41;67.52
13027;BME280;6580;42.680;23.324;2023-02-11T03:11:47;96958.00;;;-2.39;68.14
13027;BME280;6580;42.680;23.324;2023-02-11T03:14:16;96956.03;;;-2.31;68.39
13027;BME280;6580;42.680;23.324;2023-02-11T03:16:44;96963.03;;;-2.31;67.56
13027;BME280;6580;42.680;23.324;2023-02-11T03:19:19;96964.94;;;-2.38;67.88
13027;BME280;6580;42.680;23.324;2023-02-11T03:21:48;96962.22;;;-2.35;67.74
13027;BME280;6580;42.680;23.324;2023-02-11T03:24:20;96953.75;;;-2.43;68.37
13027;BME280;6580;42.680;23.324;2023-02-11T03:26:52;96967.50;;;-2.36;69.20
13027;BME280;6580;42.680;23.324;2023-02-11T03:29:28;96962.13;;;-2.30;68.24
13027;BME280;6580;42.680;23.324;2023-02-11T03:32:00;96944.28;;;-2.47;69.44
13027;BME280;6580;42.680;23.324;2023-02-11T03:34:38;96950.47;;;-2.51;68.92
13027;BME280;6580;42.680;23.324;2023-02-11T03:37:09;96955.34;;;-2.37;69.41
13027;BME280;6580;42.680;23.324;2023-02-11T03:39:45;96951.38;;;-2.52;68.44
13027;BME280;6580;42.680;23.324;2023-02-11T03:42:17;96958.47;;;-2.57;68.71
13027;BME280;6580;42.680;23.324;2023-02-11T03:44:48;96958.22;;;-2.46;69.47
13027;BME280;6580;42.680;23.324;2023-02-11T03:47:19;96957.22;;;-2.42;68.63
13027;BME280;6580;42.680;23.324;2023-02-11T03:49:50;96961.09;;;-2.58;68.85
13027;BME280;6580;42.680;23.324;2023-02-11T03:52:19;96956.38;;;-2.43;69.14
13027;BME280;6580;42.680;23.324;2023-02-11T03:54:56;96950.69;;;-2.25;67.77
13027;BME280;6580;42.680;23.324;2023-02-11T03:57:28;96950.06;;;-2.34;67.83
13027;BME280;6580;42.680;23.324;2023-02-11T04:00:00;96952.63;;;-2.33;68.50
13027;BME280;6580;42.680;23.324;2023-02-11T04:02:29;96941.63;;;-2.44;68.08
13027;BME280;6580;42.680;23.324;2023-02-11T04:04:58;96961.72;;;-2.49;67.93
13027;BME280;6580;42.680;23.324;2023-02-11T04:07:27;96951.63;;;-2.61;68.83
13027;BME280;6580;42.680;23.324;2023-02-11T04:09:54;96952.44;;;-2.59;69.46
13027;BME280;6580;42.680;23.324;2023-02-11T04:12:23;96955.06;;;-2.60;69.76
13027;BME280;6580;42.680;23.324;2023-02-11T04:14:50;96962.44;;;-2.42;69.30
13027;BME280;6580;42.680;23.324;2023-02-11T04:17:18;96947.25;;;-2.60;69.16
13027;BME280;6580;42.680;23.324;2023-02-11T04:19:45;96958.22;;;-2.46;68.77
13027;BME280;6580;42.680;23.324;2023-02-11T04:22:14;96949.50;;;-2.47;68.43
13027;BME280;6580;42.680;23.324;2023-02-11T04:24:43;96951.16;;;-2.43;69.40
13027;BME280;6580;42.680;23.324;2023-02-11T04:27:10;96947.78;;;-2.46;68.79
13027;BME280;6580;42.680;23.324;2023-02-11T04:29:37;96947.56;;;-2.39;68.85
13027;BME280;6580;42.680;23.324;2023-02-11T04:32:04;96947.41;;;-2.33;68.48
13027;BME280;6580;42.680;23.324;2023-02-11T04:34:32;96953.25;;;-2.57;68.92
13027;BME280;6580;42.680;23.324;2023-02-11T04:36:59;96959.19;;;-2.50;69.40
13027;BME280;6580;42.680;23.324;2023-02-11T04:39:28;96951.41;;;-2.53;69.09
13027;BME280;6580;42.680;23.324;2023-02-11T04:41:55;96941.69;;;-2.47;69.35
13027;BME280;6580;42.680;23.324;2023-02-11T04:44:24;96930.38;;;-2.46;69.21
13027;BME280;6580;42.680;23.324;2023-02-11T04:46:52;96942.66;;;-2.51;68.74
13027;BME280;6580;42.680;23.324;2023-02-11T04:49:19;96938.44;;;-2.55;68.94
13027;BME280;6580;42.680;23.324;2023-02-11T04:51:46;96945.19;;;-2.48;69.55
13027;BME280;6580;42.680;23.324;2023-02-11T04:54:21;96941.84;;;-2.53;70.34
13027;BME280;6580;42.680;23.324;2023-02-11T04:56:49;96939.00;;;-2.44;70.63
13027;BME280;6580;42.680;23.324;2023-02-11T04:59:16;96942.44;;;-2.42;69.82
13027;BME280;6580;42.680;23.324;2023-02-11T05:01:43;96935.81;;;-2.55;69.75
13027;BME280;6580;42.680;23.324;2023-02-11T05:04:10;96935.16;;;-2.63;70.31
13027;BME280;6580;42.680;23.324;2023-02-11T05:06:44;96935.16;;;-2.63;70.35
13027;BME280;6580;42.680;23.324;2023-02-11T05:09:12;96931.66;;;-2.97;72.24
13027;BME280;6580;42.680;23.324;2023-02-11T05:11:42;96930.25;;;-3.09;73.05
13027;BME280;6580;42.680;23.324;2023-02-11T05:14:10;96934.47;;;-3.04;74.23
13027;BME280;6580;42.680;23.324;2023-02-11T05:16:36;96935.59;;;-3.15;75.36
13027;BME280;6580;42.680;23.324;2023-02-11T05:19:04;96944.44;;;-3.22;75.81
13027;BME280;6580;42.680;23.324;2023-02-11T05:21:31;96921.41;;;-3.40;77.12
13027;BME280;6580;42.680;23.324;2023-02-11T05:23:58;96927.38;;;-3.35;77.35
13027;BME280;6580;42.680;23.324;2023-02-11T05:26:25;96945.91;;;-3.49;78.45
13027;BME280;6580;42.680;23.324;2023-02-11T05:28:52;96942.69;;;-3.60;79.34
13027;BME280;6580;42.680;23.324;2023-02-11T05:31:21;96943.28;;;-3.47;78.58
13027;BME280;6580;42.680;23.324;2023-02-11T05:33:47;96933.44;;;-3.74;79.52
13027;BME280;6580;42.680;23.324;2023-02-11T05:36:15;96942.69;;;-3.60;79.30
13027;BME280;6580;42.680;23.324;2023-02-11T05:38:42;96924.84;;;-3.78;79.46
13027;BME280;6580;42.680;23.324;2023-02-11T05:41:18;96942.13;;;-3.75;79.67
13027;BME280;6580;42.680;23.324;2023-02-11T05:44:07;96933.38;;;-3.71;79.42
13027;BME280;6580;42.680;23.324;2023-02-11T05:46:40;96940.91;;;-3.58;78.86
13027;BME280;6580;42.680;23.324;2023-02-11T05:49:07;96946.69;;;-3.85;79.97
13027;BME280;6580;42.680;23.324;2023-02-11T05:51:34;96952.97;;;-3.95;79.87
13027;BME280;6580;42.680;23.324;2023-02-11T05:54:02;96956.66;;;-4.06;80.54
13027;BME280;6580;42.680;23.324;2023-02-11T05:56:29;96960.09;;;-4.05;81.36
13027;BME280;6580;42.680;23.324;2023-02-11T05:59:01;96961.88;;;-4.06;80.83
13027;BME280;6580;42.680;23.324;2023-02-11T06:01:29;96954.91;;;-4.04;80.33
13027;BME280;6580;42.680;23.324;2023-02-11T06:04:00;96955.47;;;-3.90;80.04
13027;BME280;6580;42.680;23.324;2023-02-11T06:06:28;96960.88;;;-4.01;80.10
13027;BME280;6580;42.680;23.324;2023-02-11T06:08:55;96964.16;;;-3.91;79.88
13027;BME280;6580;42.680;23.324;2023-02-11T06:11:22;96969.31;;;-3.90;79.98
13027;BME280;6580;42.680;23.324;2023-02-11T06:13:49;96947.72;;;-3.93;79.63
13027;BME280;6580;42.680;23.324;2023-02-11T06:16:18;96971.59;;;-3.73;79.49
13027;BME280;6580;42.680;23.324;2023-02-11T06:18:47;96969.00;;;-3.73;78.70
13027;BME280;6580;42.680;23.324;2023-02-11T06:21:16;96963.63;;;-3.66;78.30
13027;BME280;6580;42.680;23.324;2023-02-11T06:23:44;96962.41;;;-3.48;77.44
13027;BME280;6580;42.680;23.324;2023-02-11T06:26:17;96961.06;;;-3.67;77.68
13027;BME280;6580;42.680;23.324;2023-02-11T06:28:45;96963.94;;;-3.40;77.08
13027;BME280;6580;42.680;23.324;2023-02-11T06:31:12;96969.06;;;-3.35;77.02
13027;BME280;6580;42.680;23.324;2023-02-11T06:33:40;96943.19;;;-3.44;76.55
13027;BME280;6580;42.680;23.324;2023-02-11T06:36:13;96960.34;;;-3.34;76.41
13027;BME280;6580;42.680;23.324;2023-02-11T06:38:42;96960.00;;;-3.19;75.17
13027;BME280;6580;42.680;23.324;2023-02-11T06:41:13;96965.91;;;-3.11;75.22
13027;BME280;6580;42.680;23.324;2023-02-11T06:43:40;96968.28;;;-3.03;75.70
13027;BME280;6580;42.680;23.324;2023-02-11T06:46:11;96964.47;;;-2.90;74.66
13027;BME280;6580;42.680;23.324;2023-02-11T06:48:38;96962.69;;;-2.51;72.90
13027;BME280;6580;42.680;23.324;2023-02-11T06:51:06;96962.13;;;-1.99;69.99
13027;BME280;6580;42.680;23.324;2023-02-11T06:53:37;96955.94;;;-1.35;67.96
13027;BME280;6580;42.680;23.324;2023-02-11T06:56:09;96955.53;;;-0.95;63.85
13027;BME280;6580;42.680;23.324;2023-02-11T06:58:37;96953.66;;;-1.18;63.76
13027;BME280;6580;42.680;23.324;2023-02-11T07:01:06;96947.59;;;-0.92;62.43
13027;BME280;6580;42.680;23.324;2023-02-11T07:03:34;96957.25;;;-1.21;63.22
13027;BME280;6580;42.680;23.324;2023-02-11T07:06:01;96954.06;;;-1.32;64.40
13027;BME280;6580;42.680;23.324;2023-02-11T07:08:31;96958.78;;;-1.44;64.67
13027;BME280;6580;42.680;23.324;2023-02-11T07:10:58;96955.06;;;-1.65;65.85
13027;BME280;6580;42.680;23.324;2023-02-11T07:13:27;96934.31;;;-1.69;66.51
13027;BME280;6580;42.680;23.324;2023-02-11T07:15:56;96956.09;;;-1.70;66.55
13027;BME280;6580;42.680;23.324;2023-02-11T07:18:27;96943.84;;;-1.68;66.92
13027;BME280;6580;42.680;23.324;2023-02-11T07:20:54;96955.56;;;-1.52;66.35
13027;BME280;6580;42.680;23.324;2023-02-11T07:23:21;96937.91;;;-1.73;66.38
13027;BME280;6580;42.680;23.324;2023-02-11T07:25:49;96949.91;;;-1.68;67.26
13027;BME280;6580;42.680;23.324;2023-02-11T07:28:17;96945.97;;;-1.52;66.91
13027;BME280;6580;42.680;23.324;2023-02-11T07:30:48;96936.63;;;-1.60;67.05
13027;BME280;6580;42.680;23.324;2023-02-11T07:33:15;96917.06;;;-1.46;66.86
13027;BME280;6580;42.680;23.324;2023-02-11T07:35:44;96930.06;;;-1.44;67.37
13027;BME280;6580;42.680;23.324;2023-02-11T07:38:11;96930.88;;;-1.42;66.93
13027;BME280;6580;42.680;23.324;2023-02-11T07:40:38;96920.75;;;-1.24;66.88
13027;BME280;6580;42.680;23.324;2023-02-11T07:43:06;96920.16;;;-1.06;65.75
13027;BME280;6580;42.680;23.324;2023-02-11T07:45:33;96918.94;;;-1.22;66.00
13027;BME280;6580;42.680;23.324;2023-02-11T07:48:01;96915.69;;;-1.02;66.22
13027;BME280;6580;42.680;23.324;2023-02-11T07:50:28;96914.69;;;-0.99;65.10
13027;BME280;6580;42.680;23.324;2023-02-11T07:52:56;96919.94;;;-0.99;65.58
13027;BME280;6580;42.680;23.324;2023-02-11T07:55:23;96915.66;;;-1.01;66.28
13027;BME280;6580;42.680;23.324;2023-02-11T07:57:51;96920.97;;;-1.04;66.33
13027;BME280;6580;42.680;23.324;2023-02-11T08:00:18;96891.16;;;-0.73;66.24
13027;BME280;6580;42.680;23.324;2023-02-11T08:02:44;96913.78;;;-0.46;64.65
13027;BME280;6580;42.680;23.324;2023-02-11T08:05:13;96911.00;;;-0.66;64.29
13027;BME280;6580;42.680;23.324;2023-02-11T08:07:40;96907.91;;;-0.52;63.96
13027;BME280;6580;42.680;23.324;2023-02-11T08:10:07;96919.84;;;-0.44;64.58
13027;BME280;6580;42.680;23.324;2023-02-11T08:12:34;96900.06;;;-0.52;63.04
13027;BME280;6580;42.680;23.324;2023-02-11T08:15:01;96912.28;;;-0.53;62.51
13027;BME280;6580;42.680;23.324;2023-02-11T08:17:28;96906.31;;;-0.56;63.18
13027;BME280;6580;42.680;23.324;2023-02-11T08:19:56;96905.00;;;-0.19;62.68
13027;BME280;6580;42.680;23.324;2023-02-11T08:22:24;96902.41;;;0.04;60.93
13027;BME280;6580;42.680;23.324;2023-02-11T08:24:51;96907.19;;;-0.07;60.84
13027;BME280;6580;42.680;23.324;2023-02-11T08:27:17;96902.59;;;-0.25;61.62
13027;BME280;6580;42.680;23.324;2023-02-11T08:29:45;96902.84;;;-0.08;61.59
13027;BME280;6580;42.680;23.324;2023-02-11T08:32:13;96901.63;;;0.25;61.19
13027;BME280;6580;42.680;23.324;2023-02-11T08:34:39;96889.47;;;0.47;60.75
13027;BME280;6580;42.680;23.324;2023-02-11T08:37:06;96883.72;;;0.37;58.96
13027;BME280;6580;42.680;23.324;2023-02-11T08:39:35;96898.81;;;0.31;60.10
13027;BME280;6580;42.680;23.324;2023-02-11T08:42:03;96894.66;;;0.25;61.06
13027;BME280;6580;42.680;23.324;2023-02-11T08:44:29;96886.72;;;0.27;60.50
13027;BME280;6580;42.680;23.324;2023-02-11T08:46:56;96897.44;;;0.67;60.14
13027;BME280;6580;42.680;23.324;2023-02-11T08:49:23;96892.97;;;0.23;59.93
13027;BME280;6580;42.680;23.324;2023-02-11T08:51:50;96892.00;;;0.48;59.45
13027;BME280;6580;42.680;23.324;2023-02-11T08:54:16;96898.69;;;1.22;58.40
13027;BME280;6580;42.680;23.324;2023-02-11T08:56:45;96893.28;;;1.47;56.56
13027;BME280;6580;42.680;23.324;2023-02-11T08:59:13;96894.09;;;2.08;54.83
13027;BME280;6580;42.680;23.324;2023-02-11T09:01:42;96889.31;;;2.92;52.22
13027;BME280;6580;42.680;23.324;2023-02-11T09:04:11;96864.50;;;3.32;51.01
13027;BME280;6580;42.680;23.324;2023-02-11T09:06:39;96869.94;;;4.31;48.36
13027;BME280;6580;42.680;23.324;2023-02-11T09:09:10;96868.13;;;3.99;48.17
13027;BME280;6580;42.680;23.324;2023-02-11T09:11:40;96871.31;;;4.21;47.36
13027;BME280;6580;42.680;23.324;2023-02-11T09:14:15;96866.06;;;4.04;47.41
13027;BME280;6580;42.680;23.324;2023-02-11T09:16:42;96865.31;;;3.51;48.16
13027;BME280;6580;42.680;23.324;2023-02-11T09:19:11;96861.34;;;5.06;46.58
13027;BME280;6580;42.680;23.324;2023-02-11T09:21:38;96851.38;;;4.80;45.05
13027;BME280;6580;42.680;23.324;2023-02-11T09:24:07;96867.09;;;4.51;44.59
13027;BME280;6580;42.680;23.324;2023-02-11T09:26:35;96844.38;;;5.70;42.55
13027;BME280;6580;42.680;23.324;2023-02-11T09:29:07;96825.66;;;6.18;41.83
13027;BME280;6580;42.680;23.324;2023-02-11T09:31:36;96847.84;;;6.99;39.29
13027;BME280;6580;42.680;23.324;2023-02-11T09:34:05;96843.75;;;5.96;40.27
13027;BME280;6580;42.680;23.324;2023-02-11T09:36:34;96833.31;;;7.45;37.99
13027;BME280;6580;42.680;23.324;2023-02-11T09:39:03;96827.50;;;8.30;36.46
13027;BME280;6580;42.680;23.324;2023-02-11T09:44:44;96819.47;;;7.66;36.66
13027;BME280;6580;42.680;23.324;2023-02-11T09:47:22;96820.13;;;8.08;35.93
13027;BME280;6580;42.680;23.324;2023-02-11T09:49:53;96801.22;;;9.23;34.68
13027;BME280;6580;42.680;23.324;2023-02-11T09:52:30;96787.94;;;9.23;34.39
13027;BME280;6580;42.680;23.324;2023-02-11T09:54:59;96802.66;;;7.14;35.91
13027;BME280;6580;42.680;23.324;2023-02-11T09:57:30;96801.56;;;8.21;35.39
13027;BME280;6580;42.680;23.324;2023-02-11T09:59:58;96796.13;;;8.10;35.34
13027;BME280;6580;42.680;23.324;2023-02-11T10:02:35;96785.63;;;7.18;36.76
13027;BME280;6580;42.680;23.324;2023-02-11T10:05:22;96776.13;;;9.27;33.86
13027;BME280;6580;42.680;23.324;2023-02-11T10:07:57;96780.56;;;8.43;33.15
13027;BME280;6580;42.680;23.324;2023-02-11T10:10:38;96759.69;;;9.33;33.16
13027;BME280;6580;42.680;23.324;2023-02-11T10:13:31;96761.72;;;10.22;31.36
13027;BME280;6580;42.680;23.324;2023-02-11T10:16:07;96755.47;;;10.45;31.05
13027;BME280;6580;42.680;23.324;2023-02-11T10:19:08;96740.41;;;11.10;29.89
13027;BME280;6580;42.680;23.324;2023-02-11T10:21:44;96741.56;;;10.63;29.78
13027;BME280;6580;42.680;23.324;2023-02-11T10:24:15;96726.50;;;10.95;30.03
13027;BME280;6580;42.680;23.324;2023-02-11T10:26:43;96724.34;;;10.34;30.45
13027;BME280;6580;42.680;23.324;2023-02-11T10:29:23;96707.06;;;9.49;30.62
13027;BME280;6580;42.680;23.324;2023-02-11T10:31:52;96708.72;;;9.39;31.11
13027;BME280;6580;42.680;23.324;2023-02-11T10:34:22;96703.16;;;10.22;30.13
13027;BME280;6580;42.680;23.324;2023-02-11T10:36:49;96690.19;;;10.50;29.73
13027;BME280;6580;42.680;23.324;2023-02-11T10:39:17;96691.19;;;9.71;31.11
13027;BME280;6580;42.680;23.324;2023-02-11T10:41:47;96671.78;;;11.11;29.47
13027;BME280;6580;42.680;23.324;2023-02-11T10:44:25;96672.31;;;9.63;29.62
13027;BME280;6580;42.680;23.324;2023-02-11T10:46:53;96666.34;;;10.49;29.63
13027;BME280;6580;42.680;23.324;2023-02-11T10:49:37;96652.19;;;11.33;28.29
13027;BME280;6580;42.680;23.324;2023-02-11T10:52:18;96650.69;;;11.19;27.51
13027;BME280;6580;42.680;23.324;2023-02-11T10:55:01;96646.81;;;9.72;29.63
13027;BME280;6580;42.680;23.324;2023-02-11T10:57:32;96648.97;;;9.78;29.71
13027;BME280;6580;42.680;23.324;2023-02-11T11:00:05;96645.72;;;9.74;30.47
13027;BME280;6580;42.680;23.324;2023-02-11T11:02:35;96641.19;;;10.31;29.35
13027;BME280;6580;42.680;23.324;2023-02-11T11:05:17;96629.34;;;11.40;29.29
13027;BME280;6580;42.680;23.324;2023-02-11T11:07:52;96621.28;;;11.82;28.50
13027;BME280;6580;42.680;23.324;2023-02-11T11:10:29;96631.69;;;12.94;27.61
13027;BME280;6580;42.680;23.324;2023-02-11T11:12:57;96609.91;;;12.49;26.90
13027;BME280;6580;42.680;23.324;2023-02-11T11:15:29;96623.25;;;12.10;27.30
13027;BME280;6580;42.680;23.324;2023-02-11T11:18:11;96612.22;;;12.63;27.47
13027;BME280;6580;42.680;23.324;2023-02-11T11:20:54;96612.00;;;12.95;24.94
13027;BME280;6580;42.680;23.324;2023-02-11T11:23:24;96607.97;;;12.21;26.70
13027;BME280;6580;42.680;23.324;2023-02-11T11:26:01;96616.53;;;13.04;25.94
13027;BME280;6580;42.680;23.324;2023-02-11T11:28:33;96602.28;;;11.55;25.98
13027;BME280;6580;42.680;23.324;2023-02-11T11:33:42;96593.28;;;12.95;26.11
13027;BME280;6580;42.680;23.324;2023-02-11T11:36:14;96614.34;;;11.80;26.69
13027;BME280;6580;42.680;23.324;2023-02-11T11:38:47;96611.72;;;11.59;27.19
13027;BME280;6580;42.680;23.324;2023-02-11T11:41:18;96598.28;;;12.79;26.86
13027;BME280;6580;42.680;23.324;2023-02-11T11:43:58;96585.97;;;14.27;24.71
13027;BME280;6580;42.680;23.324;2023-02-11T11:46:27;96574.47;;;13.89;24.68
13027;BME280;6580;42.680;23.324;2023-02-11T11:49:02;96590.91;;;14.23;23.47
13027;BME280;6580;42.680;23.324;2023-02-11T11:51:34;96578.19;;;13.60;24.29
13027;BME280;6580;42.680;23.324;2023-02-11T11:54:05;96582.03;;;12.91;24.96
13027;BME280;6580;42.680;23.324;2023-02-11T11:56:37;96561.78;;;13.91;24.94
13027;BME280;6580;42.680;23.324;2023-02-11T11:59:10;96569.41;;;14.59;24.62
13027;BME280;6580;42.680;23.324;2023-02-11T12:01:50;96567.13;;;13.91;24.69
13027;BME280;6580;42.680;23.324;2023-02-11T12:04:46;96559.91;;;13.55;25.68
13027;BME280;6580;42.680;23.324;2023-02-11T12:07:29;96558.53;;;12.95;25.98
13027;BME280;6580;42.680;23.324;2023-02-11T12:10:28;96554.97;;;11.57;26.49
13027;BME280;6580;42.680;23.324;2023-02-11T12:13:12;96552.06;;;12.97;26.01
13027;BME280;6580;42.680;23.324;2023-02-11T12:15:51;96545.00;;;12.87;24.96
13027;BME280;6580;42.680;23.324;2023-02-11T12:18:39;96542.50;;;11.67;26.52
13027;BME280;6580;42.680;23.324;2023-02-11T12:21:21;96532.94;;;12.34;25.40
13027;BME280;6580;42.680;23.324;2023-02-11T12:26:52;96498.41;;;13.82;23.50
13027;BME280;6580;42.680;23.324;2023-02-11T12:29:29;96514.31;;;14.20;23.46
13027;BME280;6580;42.680;23.324;2023-02-11T12:32:09;96509.47;;;14.77;23.13
13027;BME280;6580;42.680;23.324;2023-02-11T12:35:15;96504.31;;;14.84;22.32
13027;BME280;6580;42.680;23.324;2023-02-11T12:38:20;96498.50;;;15.06;22.56
13027;BME280;6580;42.680;23.324;2023-02-11T12:41:08;96491.25;;;15.41;22.16
13027;BME280;6580;42.680;23.324;2023-02-11T12:43:41;96493.56;;;14.22;22.62
13027;BME280;6580;42.680;23.324;2023-02-11T12:46:33;96504.47;;;13.19;24.07
13027;BME280;6580;42.680;23.324;2023-02-11T12:49:30;96501.88;;;12.33;25.32
13027;BME280;6580;42.680;23.324;2023-02-11T12:52:21;96501.22;;;12.88;25.76
13027;BME280;6580;42.680;23.324;2023-02-11T12:54:58;96495.03;;;13.06;25.33
13027;BME280;6580;42.680;23.324;2023-02-11T12:57:31;96486.28;;;14.59;24.06
13027;BME280;6580;42.680;23.324;2023-02-11T13:00:04;96469.69;;;16.01;21.99
13027;BME280;6580;42.680;23.324;2023-02-11T13:02:49;96477.94;;;12.31;25.19
13027;BME280;6580;42.680;23.324;2023-02-11T13:05:28;96485.28;;;12.67;26.07
13027;BME280;6580;42.680;23.324;2023-02-11T13:08:03;96484.28;;;12.40;25.67
13027;BME280;6580;42.680;23.324;2023-02-11T13:10:34;96478.91;;;13.44;25.18
13027;BME280;6580;42.680;23.324;2023-02-11T13:13:13;96472.63;;;13.17;25.48
13027;BME280;6580;42.680;23.324;2023-02-11T13:15:45;96465.97;;;13.39;24.17
13027;BME280;6580;42.680;23.324;2023-02-11T13:18:27;96462.69;;;12.90;24.69
13027;BME280;6580;42.680;23.324;2023-02-11T13:21:07;96469.22;;;12.39;25.61
13027;BME280;6580;42.680;23.324;2023-02-11T13:23:47;96454.19;;;13.23;24.71
13027;BME280;6580;42.680;23.324;2023-02-11T13:26:22;96473.50;;;12.02;25.54
13027;BME280;6580;42.680;23.324;2023-02-11T13:28:59;96467.53;;;12.19;25.55
13027;BME280;6580;42.680;23.324;2023-02-11T13:31:32;96468.44;;;11.10;26.18
13027;BME280;6580;42.680;23.324;2023-02-11T13:34:00;96462.13;;;9.96;27.94
13027;BME280;6580;42.680;23.324;2023-02-11T13:36:28;96463.53;;;10.74;27.06
13027;BME280;6580;42.680;23.324;2023-02-11T13:39:02;96440.69;;;10.40;27.51
13027;BME280;6580;42.680;23.324;2023-02-11T13:41:37;96470.03;;;9.32;29.10
13027;BME280;6580;42.680;23.324;2023-02-11T13:44:32;96472.09;;;8.38;29.96